createdAt,value
2023-03-16T00:01:13.486Z,1.40
2023-03-16T00:04:15.114Z,1.60
2023-03-16T00:07:16.871Z,1.57
2023-03-16T00:10:18.611Z,1.60
2023-03-16T00:13:25.157Z,1.80
2023-03-16T00:16:26.967Z,1.50
2023-03-16T00:19:28.684Z,1.70
2023-03-16T00:22:30.743Z,1.40
2023-03-16T00:25:33.525Z,1.70
2023-03-16T00:28:43.360Z,1.57
2023-03-16T00:31:45.088Z,1.80
2023-03-16T00:34:47.425Z,1.67
2023-03-16T00:37:49.191Z,1.50
2023-03-16T00:40:51.402Z,1.60
2023-03-16T00:43:53.748Z,1.60
2023-03-16T00:46:55.526Z,1.57
2023-03-16T00:49:58.080Z,1.73
2023-03-16T00:52:59.809Z,1.50
2023-03-16T00:56:04.304Z,1.80
2023-03-16T00:59:06.352Z,1.50
2023-03-16T01:02:09.060Z,1.90
2023-03-16T01:05:12.660Z,1.60
2023-03-16T01:08:14.749Z,1.60
2023-03-16T01:11:23.206Z,1.70
2023-03-16T01:14:24.897Z,1.37
2023-03-16T01:17:27.313Z,1.67
2023-03-16T01:20:29.243Z,1.47
2023-03-16T01:23:31.914Z,1.77
2023-03-16T01:26:33.857Z,1.50
2023-03-16T01:29:35.590Z,1.50
2023-03-16T01:32:37.287Z,1.83
2023-03-16T01:35:39.010Z,1.60
2023-03-16T01:38:41.338Z,1.67
2023-03-16T01:41:44.730Z,1.60
2023-03-16T01:45:01.554Z,2.00
2023-03-16T01:48:04.335Z,1.57
2023-03-16T01:51:23.982Z,1.50
2023-03-16T01:54:36.387Z,1.60
2023-03-16T01:57:43.406Z,1.60
2023-03-16T02:00:45.666Z,1.90
2023-03-16T02:03:47.342Z,1.53
2023-03-16T02:06:49.582Z,1.67
2023-03-16T02:09:55.896Z,1.50
2023-03-16T02:12:58.627Z,1.77
2023-03-16T02:16:00.493Z,1.70
2023-03-16T02:19:02.258Z,1.80
2023-03-16T02:22:08.665Z,1.80
2023-03-16T02:25:11.956Z,1.70
2023-03-16T02:28:37.997Z,2.07
2023-03-16T02:31:40.683Z,1.67
2023-03-16T02:34:42.960Z,2.13
2023-03-16T02:37:44.630Z,1.77
2023-03-16T02:40:58.109Z,1.50
2023-03-16T02:44:24.899Z,1.70
2023-03-16T02:47:37.660Z,1.90
2023-03-16T02:51:12.909Z,1.60
2023-03-16T02:54:14.553Z,1.67
2023-03-16T02:57:16.197Z,1.97
2023-03-16T03:00:19.043Z,1.90
2023-03-16T03:03:21.577Z,2.03
2023-03-16T03:06:24.694Z,1.83
2023-03-16T03:09:26.463Z,1.97
2023-03-16T03:12:28.274Z,2.17
2023-03-16T03:15:29.950Z,2.03
2023-03-16T03:18:31.714Z,2.00
2023-03-16T03:21:33.348Z,2.60
2023-03-16T03:24:35.298Z,2.33
2023-03-16T03:27:37.059Z,2.30
2023-03-16T03:30:38.869Z,2.07
2023-03-16T03:33:40.621Z,2.07
2023-03-16T03:36:42.274Z,2.00
2023-03-16T03:39:45.500Z,1.83
2023-03-16T03:42:47.405Z,2.00
2023-03-16T03:45:49.146Z,2.00
2023-03-16T03:48:50.914Z,2.57
2023-03-16T03:51:52.595Z,2.27
2023-03-16T03:54:54.271Z,1.80
2023-03-16T03:57:55.961Z,2.10
2023-03-16T04:00:57.650Z,1.90
2023-03-16T04:03:59.480Z,2.20
2023-03-16T04:07:01.162Z,2.57
2023-03-16T04:10:03.142Z,2.30
2023-03-16T04:13:04.866Z,2.33
2023-03-16T04:16:06.757Z,2.50
2023-03-16T04:19:09.450Z,2.67
2023-03-16T04:22:11.211Z,2.47
2023-03-16T04:25:15.421Z,2.20
2023-03-16T04:28:17.910Z,2.60
2023-03-16T04:31:19.793Z,2.33
2023-03-16T04:34:25.087Z,1.83
2023-03-16T04:37:26.716Z,2.13
2023-03-16T04:40:30.330Z,2.50
2023-03-16T04:43:34.434Z,2.37
2023-03-16T04:46:36.551Z,2.23
2023-03-16T04:49:38.281Z,2.30
2023-03-16T04:52:40.276Z,2.37
2023-03-16T04:55:42.312Z,2.03
2023-03-16T04:58:48.781Z,1.93
2023-03-16T05:01:50.532Z,2.27
2023-03-16T05:04:52.250Z,2.30
2023-03-16T05:07:53.939Z,2.40
2023-03-16T05:10:59.291Z,2.90
2023-03-16T05:14:02.079Z,2.30
2023-03-16T05:17:04.283Z,3.50
2023-03-16T05:20:08.353Z,2.20
2023-03-16T05:23:10.188Z,2.03
2023-03-16T05:26:13.195Z,2.03
2023-03-16T05:29:14.864Z,2.30
2023-03-16T05:32:17.232Z,2.00
2023-03-16T05:35:19.170Z,1.83
2023-03-16T05:38:21.072Z,2.13
2023-03-16T05:41:23.807Z,2.07
2023-03-16T05:44:25.509Z,2.00
2023-03-16T05:47:27.147Z,1.93
2023-03-16T05:50:29.048Z,1.87
2023-03-16T05:53:30.862Z,1.73
2023-03-16T05:56:32.559Z,2.23
2023-03-16T05:59:34.299Z,1.97
2023-03-16T06:02:40.634Z,2.00
2023-03-16T06:05:44.471Z,2.00
2023-03-16T06:16:44.142Z,2.17
2023-03-16T06:19:50.622Z,4.70
2023-03-16T06:22:52.363Z,1.77
2023-03-16T06:25:55.201Z,2.50
2023-03-16T06:28:59.257Z,3.87
2023-03-16T06:32:01.157Z,3.47
2023-03-16T06:35:10.052Z,2.93
2023-03-16T06:38:40.416Z,5.23
2023-03-16T06:41:42.778Z,2.17
2023-03-16T06:44:44.679Z,2.60
2023-03-16T06:48:07.309Z,2.00
2023-03-16T06:51:34.382Z,1.90
2023-03-16T06:54:38.528Z,1.97
2023-03-16T06:57:44.620Z,2.17
2023-03-16T07:00:46.395Z,2.30
2023-03-16T07:03:48.302Z,2.00
2023-03-16T07:07:00.057Z,1.90
2023-03-16T07:10:19.511Z,2.13
2023-03-16T07:13:40.928Z,2.00
2023-03-16T07:16:53.558Z,2.00
2023-03-16T07:19:58.883Z,1.87
2023-03-16T07:23:01.192Z,1.90
2023-03-16T07:26:06.593Z,2.33
2023-03-16T07:29:09.647Z,1.80
2023-03-16T07:32:11.707Z,2.67
2023-03-16T07:35:22.490Z,2.40
2023-03-16T07:38:28.111Z,2.20
2023-03-16T07:41:32.560Z,2.43
2023-03-16T07:44:34.709Z,2.40
2023-03-16T07:47:36.640Z,2.40
2023-03-16T07:50:43.472Z,2.13
2023-03-16T07:53:50.229Z,2.10
2023-03-16T07:57:04.134Z,2.20
2023-03-16T08:00:07.873Z,2.47
2023-03-16T08:03:09.961Z,2.13
2023-03-16T08:06:28.314Z,2.00
2023-03-16T08:09:29.986Z,2.27
2023-03-16T08:12:31.869Z,2.37
2023-03-16T08:15:33.926Z,2.43
2023-03-16T08:18:36.878Z,2.43
2023-03-16T08:21:53.176Z,2.50
2023-03-16T08:25:19.399Z,2.43
2023-03-16T08:28:21.700Z,2.50
2023-03-16T08:31:25.445Z,2.03
2023-03-16T08:34:28.754Z,2.17
2023-03-16T08:37:30.498Z,2.20
2023-03-16T08:40:34.807Z,2.00
2023-03-16T08:43:37.548Z,2.20
2023-03-16T08:46:40.769Z,2.47
2023-03-16T08:49:44.978Z,2.10
2023-03-16T08:52:49.062Z,2.30
2023-03-16T08:55:52.091Z,2.10
2023-03-16T08:58:53.762Z,2.40
2023-03-16T09:01:58.704Z,2.40
2023-03-16T09:05:02.960Z,1.67
2023-03-16T09:08:24.664Z,1.77
2023-03-16T09:11:30.527Z,2.07
2023-03-16T09:14:32.652Z,2.07
2023-03-16T09:17:34.758Z,1.70
2023-03-16T09:20:37.613Z,1.90
2023-03-16T09:23:41.829Z,1.87
2023-03-16T09:26:43.929Z,1.60
2023-03-16T09:29:46.627Z,1.90
2023-03-16T09:32:48.943Z,1.90
2023-03-16T09:35:52.364Z,2.57
2023-03-16T09:38:54.433Z,2.03
2023-03-16T09:42:08.347Z,2.53
2023-03-16T09:45:15.731Z,4.10
2023-03-16T09:48:20.939Z,2.47
2023-03-16T09:51:48.782Z,2.07
2023-03-16T09:55:43.311Z,1.70
2023-03-16T09:58:45.699Z,1.80
2023-03-16T10:02:05.997Z,2.13
2023-03-16T10:05:11.756Z,2.33
2023-03-16T10:08:13.994Z,1.93
2023-03-16T10:11:28.656Z,2.00
2023-03-16T10:14:45.223Z,2.00
2023-03-16T10:17:54.124Z,1.70
2023-03-16T10:21:14.283Z,2.20
2023-03-16T10:24:34.136Z,2.07
2023-03-16T10:27:43.271Z,2.10
2023-03-16T10:30:46.899Z,2.30
2023-03-16T10:33:55.600Z,2.10
2023-03-16T10:36:57.912Z,1.90
2023-03-16T10:40:00.934Z,2.13
2023-03-16T10:43:09.300Z,2.20
2023-03-16T10:46:15.292Z,2.10
2023-03-16T10:49:28.895Z,2.20
2023-03-16T10:52:39.981Z,1.97
2023-03-16T10:55:43.634Z,2.27
2023-03-16T10:58:46.151Z,2.00
2023-03-16T11:01:50.058Z,1.90
2023-03-16T11:04:53.015Z,1.50
2023-03-16T11:08:09.628Z,2.00
2023-03-16T11:11:33.933Z,1.87
2023-03-16T11:14:37.267Z,1.80
2023-03-16T11:17:49.677Z,1.60
2023-03-16T11:20:52.604Z,1.97
2023-03-16T11:23:56.651Z,2.10
2023-03-16T11:27:01.170Z,1.87
2023-03-16T11:30:55.192Z,1.93
2023-03-16T11:33:57.512Z,1.90
2023-03-16T11:37:14.801Z,1.67
2023-03-16T11:40:33.235Z,1.70
2023-03-16T11:43:56.989Z,1.70
2023-03-16T11:47:59.507Z,1.80
2023-03-16T11:51:35.120Z,1.67
2023-03-16T11:55:03.121Z,1.67
2023-03-16T11:58:17.330Z,1.53
2023-03-16T12:01:35.910Z,1.60
2023-03-16T12:05:04.424Z,1.90
2023-03-16T12:08:28.044Z,1.90
2023-03-16T12:12:07.383Z,1.67
2023-03-16T12:15:41.908Z,1.90
2023-03-16T12:18:54.192Z,1.70
2023-03-16T12:22:05.755Z,1.73
2023-03-16T12:25:22.002Z,1.97
2023-03-16T12:28:26.084Z,1.77
2023-03-16T12:32:14.346Z,1.97
2023-03-16T12:35:16.697Z,1.83
2023-03-16T12:38:39.353Z,1.60
2023-03-16T12:42:19.340Z,1.90
2023-03-16T12:45:37.073Z,1.90
2023-03-16T12:48:47.655Z,1.97
2023-03-16T12:51:59.721Z,1.60
2023-03-16T12:55:27.963Z,1.50
2023-03-16T12:58:30.176Z,1.60
2023-03-16T13:01:41.568Z,1.53
2023-03-16T13:04:45.837Z,1.53
2023-03-16T13:07:49.885Z,1.87
2023-03-16T13:11:14.163Z,1.70
2023-03-16T13:14:41.796Z,1.70
2023-03-16T13:17:44.068Z,1.70
2023-03-16T13:20:59.470Z,1.80
2023-03-16T13:24:19.982Z,1.80
2023-03-16T13:27:29.263Z,1.83
2023-03-16T13:30:47.139Z,1.90
2023-03-16T13:33:53.296Z,2.00
2023-03-16T13:36:58.004Z,2.30
2023-03-16T13:40:01.810Z,1.90
2023-03-16T13:43:03.586Z,2.10
2023-03-16T13:46:19.855Z,2.27
2023-03-16T13:49:21.790Z,2.27
2023-03-16T13:52:29.975Z,1.90
2023-03-16T13:55:35.600Z,2.27
2023-03-16T13:58:39.712Z,2.00
2023-03-16T14:01:45.170Z,1.70
2023-03-16T14:04:47.082Z,2.03
2023-03-16T14:07:51.135Z,2.00
2023-03-16T14:10:59.167Z,2.00
2023-03-16T14:14:41.256Z,2.33
2023-03-16T14:17:43.766Z,1.70
2023-03-16T14:20:45.512Z,1.70
2023-03-16T14:23:52.864Z,2.10
2023-03-16T14:27:33.172Z,1.80
2023-03-16T14:30:34.952Z,2.10
2023-03-16T14:33:41.262Z,1.90
2023-03-16T14:36:42.976Z,2.13
2023-03-16T14:39:45.679Z,2.00
2023-03-16T14:42:47.596Z,1.67
2023-03-16T14:45:49.338Z,2.00
2023-03-16T14:48:51.067Z,1.83
2023-03-16T14:51:55.330Z,1.93
2023-03-16T14:54:58.219Z,1.70
2023-03-16T14:57:59.909Z,1.90
2023-03-16T15:01:01.756Z,2.90
2023-03-16T15:08:46.814Z,1.90
2023-03-16T15:11:48.445Z,2.00
2023-03-16T15:15:08.726Z,2.10
2023-03-16T15:18:10.829Z,2.03
2023-03-16T15:21:20.846Z,1.80
2023-03-16T15:24:22.531Z,2.00
2023-03-16T15:27:31.428Z,2.30
2023-03-16T15:30:33.341Z,1.50
2023-03-16T15:33:34.978Z,1.80
2023-03-16T15:36:36.946Z,1.80
2023-03-16T15:39:38.615Z,1.60
2023-03-16T15:42:40.267Z,1.83
2023-03-16T15:45:43.428Z,1.80
2023-03-16T15:48:50.952Z,1.90
2023-03-16T15:51:52.703Z,1.70
2023-03-16T15:54:57.325Z,1.43
2023-03-16T15:58:02.255Z,1.73
2023-03-16T16:01:05.586Z,1.90
2023-03-16T16:04:15.492Z,1.67
2023-03-16T16:07:17.165Z,1.50
2023-03-16T16:10:19.459Z,2.27
2023-03-16T16:13:43.516Z,2.23
2023-03-16T16:16:47.128Z,2.17
2023-03-16T16:19:48.827Z,2.03
2023-03-16T16:22:52.000Z,2.30
2023-03-16T16:25:57.347Z,2.07
2023-03-16T16:28:59.278Z,2.10
2023-03-16T16:32:01.286Z,2.20
2023-03-16T16:35:04.821Z,1.90
2023-03-16T16:38:07.027Z,2.40
2023-03-16T16:41:10.036Z,2.43
2023-03-16T16:44:27.616Z,2.40
2023-03-16T16:47:29.544Z,2.00
2023-03-16T16:50:33.311Z,2.40
2023-03-16T16:53:35.402Z,2.30
2023-03-16T16:56:37.573Z,2.20
2023-03-16T16:59:39.284Z,2.20
2023-03-16T17:02:47.741Z,2.20
2023-03-16T17:05:50.060Z,1.90
2023-03-16T17:08:52.488Z,2.00
2023-03-16T17:11:57.049Z,2.27
2023-03-16T17:14:58.764Z,2.13
2023-03-16T17:18:19.552Z,2.37
2023-03-16T17:21:23.747Z,2.07
2023-03-16T17:24:25.781Z,2.07
2023-03-16T17:27:31.447Z,1.73
2023-03-16T17:30:33.158Z,1.90
2023-03-16T17:33:34.905Z,2.30
2023-03-16T17:36:36.745Z,2.43
2023-03-16T17:39:39.512Z,2.20
2023-03-16T17:42:41.324Z,2.20
2023-03-16T17:45:45.001Z,2.03
2023-03-16T17:48:47.716Z,2.00
2023-03-16T17:51:49.412Z,2.10
2023-03-16T17:54:52.626Z,1.90
2023-03-16T17:57:55.356Z,2.00
2023-03-16T18:00:58.440Z,1.83
2023-03-16T18:04:01.532Z,1.90
2023-03-16T18:07:03.260Z,2.10
2023-03-16T18:10:31.302Z,1.73
2023-03-16T18:13:37.932Z,2.17
2023-03-16T18:16:39.891Z,1.93
2023-03-16T18:19:43.351Z,2.20
2023-03-16T18:22:45.314Z,1.90
2023-03-16T18:25:48.859Z,2.13
2023-03-16T18:28:51.264Z,2.07
2023-03-16T18:31:55.897Z,1.90
2023-03-16T18:34:58.395Z,1.90
2023-03-16T18:38:00.640Z,2.10
2023-03-16T18:41:13.235Z,2.40
2023-03-16T18:44:21.727Z,2.20
2023-03-16T18:47:31.348Z,2.30
2023-03-16T18:50:33.124Z,2.27
2023-03-16T18:53:34.770Z,2.27
2023-03-16T18:56:37.105Z,2.03
2023-03-16T18:59:38.785Z,2.20
2023-03-16T19:02:52.851Z,2.30
2023-03-16T19:05:56.997Z,2.30
2023-03-16T19:09:04.337Z,2.17
2023-03-16T19:12:06.571Z,2.10
2023-03-16T19:15:19.016Z,2.30
2023-03-16T19:18:22.696Z,2.03
2023-03-16T19:21:24.845Z,2.30
2023-03-16T19:24:29.932Z,2.37
2023-03-16T19:27:36.841Z,1.90
2023-03-16T19:30:38.978Z,2.10
2023-03-16T19:33:40.898Z,2.23
2023-03-16T19:36:42.565Z,2.37
2023-03-16T19:39:45.000Z,2.23
2023-03-16T19:43:48.358Z,2.50
2023-03-16T19:46:50.309Z,2.30
2023-03-16T19:49:52.035Z,2.30
2023-03-16T19:52:58.045Z,2.40
2023-03-16T19:55:59.733Z,2.70
2023-03-16T19:59:10.109Z,2.80
2023-03-16T20:02:35.520Z,2.80
2023-03-16T20:05:38.613Z,2.40
2023-03-16T20:08:40.783Z,2.73
2023-03-16T20:11:42.535Z,2.40
2023-03-16T20:14:44.265Z,2.63
2023-03-16T20:17:46.578Z,2.87
2023-03-16T20:20:48.256Z,2.70
2023-03-16T20:24:45.723Z,2.67
2023-03-16T20:27:54.961Z,2.90
2023-03-16T20:30:56.809Z,2.90
2023-03-16T20:33:58.798Z,2.90
2023-03-16T20:37:01.155Z,3.07
2023-03-16T20:40:05.044Z,3.20
2023-03-16T20:43:22.442Z,3.10
2023-03-16T20:46:27.869Z,2.67
2023-03-16T20:49:32.336Z,2.90
2023-03-16T20:52:34.101Z,2.53
2023-03-16T20:55:36.260Z,2.60
2023-03-16T20:58:37.986Z,2.50
2023-03-16T21:01:43.941Z,2.60
2023-03-16T21:04:45.721Z,2.80
2023-03-16T21:07:51.435Z,2.57
2023-03-16T21:10:53.955Z,3.00
2023-03-16T21:13:56.450Z,3.17
2023-03-16T21:16:58.260Z,2.57
2023-03-16T21:20:00.772Z,2.70
2023-03-16T21:23:02.999Z,2.60
2023-03-16T21:26:05.331Z,2.60
2023-03-16T21:29:12.674Z,2.50
2023-03-16T21:32:21.345Z,2.80
2023-03-16T21:35:34.938Z,2.77
2023-03-16T21:38:49.203Z,2.47
2023-03-16T21:41:51.143Z,2.80
2023-03-16T21:44:52.808Z,2.57
2023-03-16T21:47:55.788Z,2.60
2023-03-16T21:50:57.909Z,2.50
2023-03-16T21:54:00.048Z,2.63
2023-03-16T21:57:02.620Z,2.40
2023-03-16T22:00:05.066Z,2.50
2023-03-16T22:03:29.555Z,2.60
2023-03-16T22:06:35.382Z,2.67
2023-03-16T22:09:37.450Z,2.57
2023-03-16T22:12:39.138Z,2.57
2023-03-16T22:15:42.571Z,2.77
2023-03-16T22:18:47.145Z,2.63
2023-03-16T22:21:49.779Z,3.03
2023-03-16T22:24:52.154Z,2.90
2023-03-16T22:27:54.017Z,3.03
2023-03-16T22:30:58.136Z,3.00
2023-03-16T22:34:01.324Z,2.87
2023-03-16T22:37:03.964Z,2.90
2023-03-16T22:40:15.620Z,3.13
2023-03-16T22:43:22.564Z,3.30
2023-03-16T22:46:27.254Z,2.97
2023-03-16T22:49:29.051Z,3.20
2023-03-16T22:52:35.256Z,3.50
2023-03-16T22:55:38.970Z,3.53
2023-03-16T22:58:48.667Z,3.90
2023-03-16T23:01:50.667Z,3.80
2023-03-16T23:04:52.415Z,3.70
2023-03-16T23:07:54.974Z,3.60
2023-03-16T23:10:56.926Z,3.70
2023-03-16T23:13:59.716Z,4.10
2023-03-16T23:17:01.661Z,4.00
2023-03-16T23:20:16.419Z,4.03
2023-03-16T23:23:19.043Z,4.03
2023-03-16T23:26:23.893Z,3.97
2023-03-16T23:29:26.778Z,4.50
2023-03-16T23:32:28.508Z,4.07
2023-03-16T23:35:31.786Z,3.90
2023-03-16T23:38:33.454Z,4.17
2023-03-16T23:41:35.636Z,4.17
2023-03-16T23:44:37.329Z,4.47
2023-03-16T23:47:39.344Z,4.27
2023-03-16T23:50:43.194Z,4.50
2023-03-16T23:53:44.857Z,4.50
2023-03-16T23:56:46.622Z,5.00
2023-03-16T23:59:48.291Z,4.40
